Time;durP1;ratioP1;P1;durP2;ratioP2;P2;SDS_P1;SDS_P2;PMS_P1;PMS_P2;Temp;Humidity;BMP_temperature;BMP_pressure;BME280_temperature;BME280_humidity;BME280_pressure;Samples;Min_cycle;Max_cycle;Signal;HPM_P1;HPM_P2
2021/08/07 00:02:26;;;;;;;10.73;1.90;;;13.30;85.20;;;;;;5075612;28;20060;-76
2021/08/07 00:04:54;;;;;;;5.40;1.50;;;13.30;85.10;;;;;;5088421;28;20479;-76
2021/08/07 00:07:26;;;;;;;8.25;2.17;;;13.40;85.00;;;;;;5085338;28;20051;-76
2021/08/07 00:09:54;;;;;;;9.50;1.98;;;13.50;84.90;;;;;;5092037;28;20059;-76
2021/08/07 00:12:24;;;;;;;7.90;1.98;;;13.50;84.80;;;;;;5083222;28;20080;-77
2021/08/07 00:14:52;;;;;;;8.10;2.30;;;13.60;84.80;;;;;;5091579;28;20044;-76
2021/08/07 00:17:19;;;;;;;8.30;2.35;;;13.70;84.70;;;;;;5089195;28;20039;-76
2021/08/07 00:19:47;;;;;;;13.07;2.53;;;13.70;84.70;;;;;;5071890;28;20315;-76
2021/08/07 00:22:15;;;;;;;11.63;2.22;;;13.80;84.60;;;;;;5069862;28;20206;-76
2021/08/07 00:24:43;;;;;;;12.07;2.45;;;13.80;84.60;;;;;;5086644;28;20499;-76
2021/08/07 00:27:10;;;;;;;9.13;2.33;;;13.80;84.70;;;;;;5088308;28;20044;-76
2021/08/07 00:29:38;;;;;;;13.05;2.67;;;13.80;84.70;;;;;;5082439;28;20051;-76
2021/08/07 00:32:06;;;;;;;9.40;2.58;;;13.80;84.90;;;;;;5094530;28;20047;-76
2021/08/07 00:34:36;;;;;;;9.13;2.72;;;13.80;85.00;;;;;;5088669;28;20499;-76
2021/08/07 00:37:06;;;;;;;13.77;2.75;;;13.80;85.00;;;;;;5094194;28;20040;-76
2021/08/07 00:39:39;;;;;;;10.63;2.60;;;13.80;85.20;;;;;;5073438;28;20058;-76
2021/08/07 00:42:09;;;;;;;7.72;2.63;;;13.80;85.30;;;;;;5090194;28;20036;-76
2021/08/07 00:44:38;;;;;;;12.00;2.22;;;13.80;85.50;;;;;;5073229;28;20078;-76
2021/08/07 00:47:06;;;;;;;12.85;2.60;;;13.80;85.50;;;;;;5070745;28;20056;-76
2021/08/07 00:49:35;;;;;;;10.02;2.60;;;13.80;85.60;;;;;;5092445;28;20063;-77
2021/08/07 00:52:07;;;;;;;12.35;2.45;;;13.80;85.60;;;;;;5090485;28;20089;-77
2021/08/07 00:54:39;;;;;;;9.20;2.30;;;13.80;85.80;;;;;;5090291;28;20048;-77
2021/08/07 00:57:10;;;;;;;8.07;2.70;;;13.80;86.10;;;;;;5069938;28;20064;-77
2021/08/07 00:59:40;;;;;;;9.35;2.13;;;13.80;86.10;;;;;;5090233;28;20067;-77
2021/08/07 01:02:18;;;;;;;11.68;2.80;;;13.80;86.20;;;;;;5090583;28;20047;-77
2021/08/07 01:04:59;;;;;;;13.82;2.55;;;13.80;86.40;;;;;;5090665;28;20057;-77
2021/08/07 01:07:54;;;;;;;14.43;2.95;;;13.80;86.50;;;;;;5090314;28;20048;-77
2021/08/07 01:10:48;;;;;;;;;;;13.80;86.70;;;;;;5085268;28;20048;-77
2021/08/07 01:13:23;;;;;;;19.88;2.90;;;13.70;86.80;;;;;;5089266;28;19927;-76
2021/08/07 01:15:59;;;;;;;10.00;3.08;;;13.70;86.90;;;;;;5090445;28;20051;-76
2021/08/07 01:18:33;;;;;;;12.48;3.58;;;13.70;87.10;;;;;;5091291;28;20052;-76
2021/08/07 01:21:05;;;;;;;14.38;2.92;;;13.70;87.40;;;;;;5090347;28;20044;-76
2021/08/07 01:23:52;;;;;;;11.93;3.08;;;13.70;87.50;;;;;;5090461;28;20047;-75
2021/08/07 01:26:39;;;;;;;18.75;4.00;;;13.60;87.60;;;;;;5101145;28;20515;-75
2021/08/07 01:29:17;;;;;;;10.05;2.28;;;13.60;87.70;;;;;;5091565;28;20519;-75
2021/08/07 01:31:52;;;;;;;15.52;3.55;;;13.70;87.70;;;;;;5074479;28;20059;-76
2021/08/07 01:34:28;;;;;;;9.65;3.10;;;13.70;87.80;;;;;;5090183;28;20040;-75
2021/08/07 01:36:57;;;;;;;13.25;2.60;;;13.70;87.80;;;;;;5092874;28;20048;-75
2021/08/07 01:39:52;;;;;;;;;;;13.70;87.80;;;;;;5077899;28;20055;-75
2021/08/07 01:42:27;;;;;;;11.93;2.63;;;13.70;87.80;;;;;;5093508;28;19927;-75
2021/08/07 01:44:58;;;;;;;11.73;2.47;;;13.70;87.70;;;;;;5094257;28;20484;-75
2021/08/07 01:47:42;;;;;;;13.25;2.80;;;13.60;87.80;;;;;;5074930;28;20416;-75
2021/08/07 01:50:28;;;;;;;17.98;3.10;;;13.60;87.90;;;;;;5093799;28;20415;-75
2021/08/07 01:53:03;;;;;;;14.05;3.28;;;13.50;87.90;;;;;;5093899;28;20051;-75
2021/08/07 01:55:50;;;;;;;12.40;3.35;;;13.50;88.00;;;;;;5093485;28;20044;-75
2021/08/07 01:58:28;;;;;;;18.48;3.05;;;13.40;88.20;;;;;;5073221;28;20052;-76
2021/08/07 02:00:59;;;;;;;19.55;3.22;;;13.30;88.10;;;;;;5083972;28;20047;-76
2021/08/07 02:03:40;;;;;;;12.45;2.63;;;13.40;88.20;;;;;;5092382;28;20410;-75
2021/08/07 02:06:10;;;;;;;17.27;2.83;;;13.30;88.10;;;;;;5093524;28;20486;-75
2021/08/07 02:08:40;;;;;;;12.25;2.60;;;13.30;88.20;;;;;;5093468;28;20044;-75
2021/08/07 02:11:13;;;;;;;18.83;3.25;;;13.30;88.30;;;;;;5093012;28;20056;-75
2021/08/07 02:13:43;;;;;;;11.30;2.63;;;13.30;88.30;;;;;;5093482;28;20055;-75
2021/08/07 02:16:18;;;;;;;9.15;2.42;;;13.30;88.20;;;;;;5092709;28;20044;-75
2021/08/07 02:18:48;;;;;;;12.90;3.03;;;13.30;88.20;;;;;;5093069;28;20411;-75
2021/08/07 02:21:20;;;;;;;14.73;2.70;;;13.30;88.20;;;;;;5093188;28;20040;-75
2021/08/07 02:23:49;;;;;;;11.05;3.15;;;13.30;88.20;;;;;;5092162;28;20044;-75
2021/08/07 02:26:24;;;;;;;15.68;3.47;;;13.30;88.20;;;;;;5091970;28;20052;-75
2021/08/07 02:29:02;;;;;;;18.42;2.50;;;13.30;88.20;;;;;;5094397;28;20043;-75
2021/08/07 02:31:32;;;;;;;13.77;2.83;;;13.30;88.20;;;;;;5092604;28;20059;-75
2021/08/07 02:34:00;;;;;;;12.43;2.42;;;13.30;88.20;;;;;;5076230;28;20523;-75
2021/08/07 02:36:30;;;;;;;21.33;3.55;;;13.30;88.20;;;;;;5092808;28;20048;-75
2021/08/07 02:39:04;;;;;;;14.02;2.85;;;13.30;88.30;;;;;;5092475;28;20048;-75
2021/08/07 02:41:32;;;;;;;17.60;2.35;;;13.30;88.40;;;;;;5093564;28;20413;-75
2021/08/07 02:44:02;;;;;;;13.57;2.92;;;13.30;88.40;;;;;;5092431;28;20411;-75
2021/08/07 02:46:30;;;;;;;10.98;2.35;;;13.30;88.40;;;;;;5092261;28;20047;-75
2021/08/07 02:49:00;;;;;;;14.07;2.83;;;13.30;88.30;;;;;;5092538;28;20047;-75
2021/08/07 02:51:28;;;;;;;18.13;2.53;;;13.30;88.30;;;;;;5092670;28;20044;-75
2021/08/07 02:53:58;;;;;;;8.07;2.30;;;13.30;88.30;;;;;;5075955;28;20048;-75
2021/08/07 02:56:26;;;;;;;11.73;2.72;;;13.30;88.30;;;;;;5092015;28;20491;-75
2021/08/07 02:58:56;;;;;;;17.90;2.95;;;13.30;88.20;;;;;;5092494;28;20048;-76
2021/08/07 03:01:25;;;;;;;12.55;2.42;;;13.30;88.20;;;;;;5073254;28;20045;-75
2021/08/07 03:03:55;;;;;;;13.60;2.30;;;13.30;88.30;;;;;;5092348;28;20043;-75
2021/08/07 03:06:24;;;;;;;13.73;2.85;;;13.30;88.30;;;;;;5093726;28;20040;-76
2021/08/07 03:08:54;;;;;;;14.50;2.40;;;13.30;88.30;;;;;;5092453;28;20044;-75
2021/08/07 03:11:22;;;;;;;13.43;2.92;;;13.30;88.30;;;;;;5091715;28;20511;-75
2021/08/07 03:13:56;;;;;;;18.88;3.00;;;13.30;88.30;;;;;;5075620;28;20066;-75
2021/08/07 03:16:28;;;;;;;16.67;3.03;;;13.30;88.30;;;;;;5092199;28;20465;-75
2021/08/07 03:18:56;;;;;;;15.18;3.10;;;13.30;88.30;;;;;;5092154;28;20055;-75
2021/08/07 03:21:24;;;;;;;16.27;3.30;;;13.30;88.30;;;;;;5091138;28;20052;-75
2021/08/07 03:24:01;;;;;;;13.90;2.80;;;13.30;88.30;;;;;;5078514;28;20040;-75
2021/08/07 03:26:32;;;;;;;16.88;2.70;;;13.30;88.30;;;;;;5101213;28;20055;-75
2021/08/07 03:29:05;;;;;;;18.60;3.20;;;13.30;88.40;;;;;;5091986;28;20062;-75
2021/08/07 03:31:36;;;;;;;19.05;2.83;;;13.30;88.30;;;;;;5091463;28;20052;-75
2021/08/07 03:34:03;;;;;;;10.02;2.40;;;13.30;88.40;;;;;;5092574;28;20510;-75
2021/08/07 03:36:31;;;;;;;19.17;2.53;;;13.30;88.40;;;;;;5071766;28;20048;-75
2021/08/07 03:39:04;;;;;;;14.57;2.78;;;13.30;88.40;;;;;;5085964;28;20044;-75
2021/08/07 03:41:35;;;;;;;;;;;13.20;88.50;;;;;;5073547;28;20058;-75
2021/08/07 03:44:04;;;;;;;15.00;2.53;;;13.20;88.50;;;;;;5090795;28;19927;-75
2021/08/07 03:46:32;;;;;;;15.77;2.70;;;13.00;88.60;;;;;;5091892;28;20071;-75
2021/08/07 03:49:00;;;;;;;12.82;2.80;;;13.00;88.60;;;;;;5090786;28;20047;-75
2021/08/07 03:51:30;;;;;;;14.93;3.10;;;12.90;88.80;;;;;;5090337;28;20048;-75
2021/08/07 03:53:58;;;;;;;19.67;3.20;;;12.80;88.90;;;;;;5090631;28;20040;-75
2021/08/07 03:56:31;;;;;;;15.00;3.00;;;12.80;89.00;;;;;;5090413;28;20048;-75
2021/08/07 03:59:03;;;;;;;16.03;3.37;;;12.80;89.10;;;;;;5089511;28;20052;-75
2021/08/07 04:01:31;;;;;;;15.98;3.03;;;12.80;89.00;;;;;;5071566;28;20060;-75
2021/08/07 04:04:05;;;;;;;14.57;3.05;;;12.80;89.10;;;;;;5090517;28;20040;-76
2021/08/07 04:06:40;;;;;;;17.75;3.35;;;12.70;89.20;;;;;;5091548;28;20036;-75
2021/08/07 04:09:13;;;;;;;22.35;3.50;;;12.60;89.20;;;;;;5091287;28;20052;-75
2021/08/07 04:11:42;;;;;;;18.38;3.20;;;12.60;89.40;;;;;;5074017;28;20491;-75
2021/08/07 04:14:10;;;;;;;11.40;3.25;;;12.50;89.40;;;;;;5092362;28;20048;-75
2021/08/07 04:16:38;;;;;;;15.65;3.03;;;12.50;89.50;;;;;;5090916;28;20040;-75
2021/08/07 04:19:26;;;;;;;7.28;2.35;;;12.50;89.70;;;;;;5091967;28;20442;-75
2021/08/07 04:22:00;;;;;;;13.38;3.20;;;12.40;89.60;;;;;;5091073;28;20039;-75
2021/08/07 04:24:34;;;;;;;15.57;3.05;;;12.40;89.70;;;;;;5090569;28;20051;-75
2021/08/07 04:27:02;;;;;;;13.65;2.60;;;12.40;89.90;;;;;;5090762;28;20047;-74
2021/08/07 04:29:30;;;;;;;18.58;3.70;;;12.30;89.90;;;;;;5072136;28;20049;-76
2021/08/07 04:31:59;;;;;;;17.20;2.80;;;12.40;90.00;;;;;;5070729;28;20484;-76
2021/08/07 04:34:27;;;;;;;11.57;2.78;;;12.40;90.00;;;;;;5080355;28;20043;-76
2021/08/07 04:36:55;;;;;;;21.50;3.30;;;12.40;90.00;;;;;;5070702;28;20049;-75
2021/08/07 04:39:25;;;;;;;12.45;2.47;;;12.40;90.10;;;;;;5088350;28;20047;-76
2021/08/07 04:41:57;;;;;;;19.52;3.17;;;12.40;90.00;;;;;;5090999;28;20305;-76
2021/08/07 04:44:25;;;;;;;14.50;3.17;;;12.50;90.00;;;;;;5090385;28;20059;-76
2021/08/07 04:46:53;;;;;;;14.20;2.78;;;12.40;90.00;;;;;;5085513;28;20044;-75
2021/08/07 04:49:21;;;;;;;22.83;3.33;;;12.40;90.00;;;;;;5090501;28;20484;-76
2021/08/07 04:51:48;;;;;;;10.75;2.50;;;12.40;90.10;;;;;;5093927;28;20043;-76
2021/08/07 04:54:16;;;;;;;18.67;2.95;;;12.40;90.20;;;;;;5102793;28;20055;-76
2021/08/07 04:56:44;;;;;;;16.30;2.95;;;12.40;90.20;;;;;;5090002;28;20052;-76
2021/08/07 04:59:12;;;;;;;10.90;2.85;;;12.40;90.30;;;;;;5090361;28;20051;-76
2021/08/07 05:01:40;;;;;;;16.60;3.10;;;12.40;90.40;;;;;;5090447;28;20051;-76
2021/08/07 05:04:10;;;;;;;16.75;3.13;;;12.40;90.30;;;;;;5090741;28;20040;-76
2021/08/07 05:06:44;;;;;;;17.02;2.60;;;12.50;90.20;;;;;;5090581;28;20048;-75
2021/08/07 05:09:12;;;;;;;;;;;12.50;90.20;;;;;;5091029;28;20040;-76
2021/08/07 05:11:56;;;;;;;11.05;2.55;;;12.60;90.10;;;;;;5083923;28;19927;-76
2021/08/07 05:14:24;;;;;;;11.13;3.15;;;12.70;89.90;;;;;;5095887;28;20051;-76
2021/08/07 05:16:52;;;;;;;13.85;2.70;;;12.80;89.80;;;;;;5094523;28;20051;-76
2021/08/07 05:19:21;;;;;;;14.98;2.63;;;12.80;89.70;;;;;;5094414;28;20278;-76
2021/08/07 05:21:49;;;;;;;15.25;3.00;;;12.80;89.60;;;;;;5094621;28;20369;-76
2021/08/07 05:24:16;;;;;;;10.23;2.40;;;12.80;89.50;;;;;;5093855;28;20463;-76
2021/08/07 05:26:45;;;;;;;15.88;2.55;;;12.90;89.40;;;;;;5094217;28;20040;-76
2021/08/07 05:29:12;;;;;;;13.45;2.28;;;12.90;89.40;;;;;;5095403;28;20044;-75
2021/08/07 05:31:40;;;;;;;15.20;3.05;;;12.90;89.30;;;;;;5094564;28;20487;-76
2021/08/07 05:34:08;;;;;;;11.60;2.28;;;12.90;89.20;;;;;;5094148;28;20051;-76
2021/08/07 05:36:36;;;;;;;5.18;1.77;;;12.90;89.30;;;;;;5095766;28;20039;-76
2021/08/07 05:39:03;;;;;;;9.35;1.85;;;12.90;89.20;;;;;;5094038;28;20059;-75
2021/08/07 05:41:31;;;;;;;11.00;2.22;;;13.00;89.10;;;;;;5093736;28;20047;-76
2021/08/07 05:43:58;;;;;;;14.90;2.30;;;13.10;88.90;;;;;;5094033;28;20058;-76
2021/08/07 05:46:27;;;;;;;19.00;2.40;;;13.10;88.80;;;;;;5094050;28;20051;-76
2021/08/07 05:49:10;;;;;;;14.18;1.90;;;13.30;88.60;;;;;;5085050;28;20443;-76
2021/08/07 05:51:38;;;;;;;13.00;2.45;;;13.30;88.40;;;;;;5071438;28;20060;-76
2021/08/07 05:54:06;;;;;;;9.02;1.77;;;13.40;88.20;;;;;;5082326;28;20052;-76
2021/08/07 05:56:34;;;;;;;8.27;1.83;;;13.40;88.00;;;;;;5056036;28;20056;-76
2021/08/07 05:59:02;;;;;;;9.35;2.00;;;13.50;87.70;;;;;;5060845;28;20063;-76
2021/08/07 06:01:30;;;;;;;14.52;2.03;;;13.60;87.60;;;;;;5054263;28;20049;-76
2021/08/07 06:03:58;;;;;;;8.77;1.80;;;13.60;87.50;;;;;;5083349;28;20401;-76
2021/08/07 06:06:27;;;;;;;14.25;2.00;;;13.60;87.40;;;;;;5061131;28;20063;-76
2021/08/07 06:08:57;;;;;;;14.10;2.00;;;13.70;87.20;;;;;;5073499;28;20537;-76
2021/08/07 06:11:26;;;;;;;15.50;2.08;;;13.70;87.20;;;;;;5084399;28;20397;-76
2021/08/07 06:13:56;;;;;;;9.65;1.80;;;13.80;87.10;;;;;;5056455;28;20048;-76
2021/08/07 06:16:26;;;;;;;11.30;1.75;;;13.70;87.00;;;;;;5078041;28;20041;-76
2021/08/07 06:18:54;;;;;;;8.43;1.73;;;13.70;86.90;;;;;;5081009;28;20059;-76
2021/08/07 06:21:22;;;;;;;8.90;1.50;;;13.70;86.80;;;;;;5053457;28;20409;-76
2021/08/07 06:23:49;;;;;;;13.60;1.98;;;13.70;86.70;;;;;;5082445;28;20052;-76
2021/08/07 06:26:17;;;;;;;8.23;1.92;;;13.70;86.70;;;;;;5059088;28;20049;-75
2021/08/07 06:28:45;;;;;;;12.35;1.75;;;13.70;86.60;;;;;;5074954;28;20044;-76
2021/08/07 06:31:13;;;;;;;14.77;2.10;;;13.70;86.60;;;;;;5056381;28;20498;-76
2021/08/07 06:33:42;;;;;;;12.18;1.88;;;13.70;86.30;;;;;;5054286;28;20405;-76
2021/08/07 06:36:10;;;;;;;12.73;1.98;;;13.70;86.30;;;;;;5079478;28;20413;-76
2021/08/07 06:38:38;;;;;;;11.30;1.85;;;13.80;86.20;;;;;;5073445;28;20052;-76
2021/08/07 06:41:05;;;;;;;9.35;1.90;;;13.80;86.00;;;;;;5062249;28;20521;-75
2021/08/07 06:43:44;;;;;;;7.15;1.58;;;13.90;85.90;;;;;;5040924;28;20048;-75
2021/08/07 06:46:18;;;;;;;11.43;1.90;;;14.00;85.70;;;;;;5075001;28;20040;-75
2021/08/07 06:48:46;;;;;;;12.95;1.92;;;14.10;85.50;;;;;;5068473;28;20059;-75
2021/08/07 06:51:14;;;;;;;8.27;1.95;;;14.30;85.10;;;;;;5068205;28;20048;-75
2021/08/07 06:53:42;;;;;;;6.90;1.20;;;14.40;84.70;;;;;;5062237;28;20047;-75
2021/08/07 06:56:10;;;;;;;9.77;2.00;;;14.50;84.30;;;;;;5073860;28;20055;-75
2021/08/07 06:58:37;;;;;;;9.48;1.40;;;14.60;84.10;;;;;;5073532;28;20402;-75
2021/08/07 07:01:05;;;;;;;10.15;1.83;;;14.60;83.70;;;;;;5069629;28;20608;-75
2021/08/07 07:03:34;;;;;;;7.88;1.48;;;14.60;83.70;;;;;;5057979;28;20044;-75
2021/08/07 07:06:02;;;;;;;7.35;1.50;;;14.70;83.60;;;;;;5068158;28;20048;-75
2021/08/07 07:08:30;;;;;;;9.88;1.55;;;14.70;83.20;;;;;;5062577;28;20052;-75
2021/08/07 07:10:58;;;;;;;12.20;1.77;;;14.70;83.30;;;;;;5026183;28;20045;-75
2021/08/07 07:13:26;;;;;;;8.82;1.55;;;14.70;83.20;;;;;;5052882;28;20049;-75
2021/08/07 07:15:53;;;;;;;8.32;1.95;;;14.70;82.60;;;;;;5058217;28;20534;-76
2021/08/07 07:18:23;;;;;;;14.18;1.70;;;14.70;82.80;;;;;;5063796;28;20402;-76
2021/08/07 07:20:51;;;;;;;7.05;1.85;;;14.70;82.90;;;;;;5067765;28;20056;-75
2021/08/07 07:23:19;;;;;;;7.15;1.10;;;14.60;82.70;;;;;;5023416;28;20053;-76
2021/08/07 07:25:48;;;;;;;10.95;2.05;;;14.60;82.70;;;;;;5051403;28;20052;-76
2021/08/07 07:28:16;;;;;;;8.77;1.65;;;14.50;82.90;;;;;;5061412;28;20048;-76
2021/08/07 07:30:44;;;;;;;7.68;1.60;;;14.50;82.80;;;;;;5058754;28;20052;-76
2021/08/07 07:33:14;;;;;;;12.35;1.67;;;14.50;82.80;;;;;;5068588;28;20052;-74
2021/08/07 07:35:42;;;;;;;8.90;1.33;;;14.50;82.70;;;;;;5039711;28;20053;-75
2021/08/07 07:38:11;;;;;;;6.97;1.30;;;14.60;82.70;;;;;;5064391;28;20051;-76
2021/08/07 07:40:40;;;;;;;10.73;1.50;;;14.70;82.60;;;;;;5058480;28;20052;-75
2021/08/07 07:43:08;;;;;;;7.15;1.38;;;14.70;82.30;;;;;;5067244;28;20051;-75
2021/08/07 07:45:36;;;;;;;12.55;1.52;;;14.80;82.20;;;;;;5056129;28;20052;-76
2021/08/07 07:48:06;;;;;;;10.82;1.67;;;14.80;81.90;;;;;;5064668;28;20497;-76
2021/08/07 07:50:34;;;;;;;7.90;1.55;;;14.80;81.60;;;;;;5050924;28;20048;-76
2021/08/07 07:53:05;;;;;;;5.03;1.40;;;14.90;81.60;;;;;;5044964;28;20056;-76
2021/08/07 07:55:34;;;;;;;11.20;1.65;;;14.90;81.70;;;;;;5054556;28;20498;-76
2021/08/07 07:58:02;;;;;;;10.15;1.40;;;15.00;81.50;;;;;;5065145;28;20053;-76
2021/08/07 08:00:32;;;;;;;8.85;1.38;;;15.00;81.30;;;;;;5061347;28;20056;-76
2021/08/07 08:03:02;;;;;;;9.85;1.50;;;15.10;81.00;;;;;;5057179;28;20458;-75
2021/08/07 08:05:42;;;;;;;10.63;1.42;;;15.10;80.70;;;;;;5055075;28;20045;-76
2021/08/07 08:08:09;;;;;;;7.57;1.38;;;15.10;80.40;;;;;;5065360;28;20045;-76
2021/08/07 08:10:40;;;;;;;5.35;1.23;;;15.10;80.50;;;;;;5062362;28;20339;-76
2021/08/07 08:13:11;;;;;;;5.57;1.33;;;15.10;80.40;;;;;;5046339;28;20052;-75
2021/08/07 08:15:40;;;;;;;10.48;1.75;;;15.10;80.10;;;;;;5042423;28;20040;-75
2021/08/07 08:18:11;;;;;;;11.35;1.52;;;15.10;80.40;;;;;;5052444;28;20057;-75
2021/08/07 08:20:41;;;;;;;10.27;1.42;;;15.10;80.40;;;;;;5053104;28;20063;-75
2021/08/07 08:23:09;;;;;;;8.15;1.60;;;15.20;80.30;;;;;;5052381;28;20049;-76
2021/08/07 08:25:37;;;;;;;7.57;1.30;;;15.30;80.10;;;;;;5062682;28;20056;-76
2021/08/07 08:28:06;;;;;;;7.63;1.67;;;15.30;79.70;;;;;;5038266;28;20409;-77
2021/08/07 08:30:34;;;;;;;6.43;1.30;;;15.30;79.60;;;;;;5057455;28;20057;-76
2021/08/07 08:33:02;;;;;;;8.27;1.27;;;15.30;79.30;;;;;;5062329;28;20041;-77
2021/08/07 08:35:30;;;;;;;4.93;1.30;;;15.30;79.40;;;;;;5050794;28;20045;-77
2021/08/07 08:37:58;;;;;;;5.13;1.00;;;15.40;79.20;;;;;;5061482;28;20064;-76
2021/08/07 08:40:27;;;;;;;11.02;1.70;;;15.40;79.00;;;;;;5054054;28;20041;-75
2021/08/07 08:42:56;;;;;;;9.48;1.48;;;15.50;78.70;;;;;;5051619;28;20048;-76
2021/08/07 08:45:26;;;;;;;8.32;1.45;;;15.60;78.50;;;;;;5050688;28;20076;-77
2021/08/07 08:47:55;;;;;;;6.57;1.15;;;15.50;78.30;;;;;;5064827;28;20067;-78
2021/08/07 08:50:24;;;;;;;9.18;1.92;;;15.50;78.60;;;;;;5058191;28;20044;-77
2021/08/07 08:52:56;;;;;;;11.30;1.50;;;15.50;78.30;;;;;;5052405;28;20394;-77
2021/08/07 08:55:25;;;;;;;6.20;1.27;;;15.50;78.30;;;;;;5056211;28;20045;-77
2021/08/07 08:57:53;;;;;;;10.07;1.25;;;15.40;78.30;;;;;;5040461;28;20044;-77
2021/08/07 09:00:21;;;;;;;10.23;1.45;;;15.40;78.50;;;;;;5058183;28;20060;-77
2021/08/07 09:02:49;;;;;;;7.75;1.35;;;15.50;78.70;;;;;;5061416;28;20055;-77
2021/08/07 09:05:17;;;;;;;7.40;1.67;;;15.40;78.80;;;;;;5048822;28;20057;-77
2021/08/07 09:07:46;;;;;;;8.18;1.50;;;15.40;79.10;;;;;;5042511;28;20068;-77
2021/08/07 09:10:23;;;;;;;6.32;1.27;;;15.30;78.90;;;;;;5044438;28;20041;-77
2021/08/07 09:12:58;;;;;;;4.93;1.20;;;15.30;79.30;;;;;;5064339;28;20053;-77
2021/08/07 09:15:32;;;;;;;7.88;1.55;;;15.30;79.60;;;;;;5040417;28;20056;-78
2021/08/07 09:18:09;;;;;;;8.65;1.42;;;15.30;79.80;;;;;;5051563;28;20048;-77
2021/08/07 09:20:45;;;;;;;9.07;1.30;;;15.30;80.00;;;;;;5039331;28;20041;-77
2021/08/07 09:23:15;;;;;;;10.23;1.73;;;15.40;79.80;;;;;;5049371;28;20045;-77
2021/08/07 09:25:47;;;;;;;5.28;1.23;;;15.60;79.50;;;;;;5046814;28;20048;-78
2021/08/07 09:28:15;;;;;;;6.78;1.50;;;15.70;79.30;;;;;;5058398;28;20434;-78
2021/08/07 09:30:45;;;;;;;2.28;0.77;;;15.70;79.00;;;;;;5031774;28;20057;-77
2021/08/07 09:33:20;;;;;;;10.70;1.65;;;15.80;78.60;;;;;;5027329;28;20065;-77
2021/08/07 09:35:48;;;;;;;9.05;1.30;;;15.80;78.20;;;;;;5037025;28;20033;-77
2021/08/07 09:38:22;;;;;;;8.85;1.42;;;16.00;78.00;;;;;;5027078;28;20053;-78
2021/08/07 09:41:04;;;;;;;4.57;1.00;;;16.10;77.40;;;;;;5045928;28;20064;-77
2021/08/07 09:43:59;;;;;;;10.45;1.33;;;16.30;76.90;;;;;;5039338;28;20037;-77
2021/08/07 09:46:27;;;;;;;4.35;1.08;;;16.50;76.40;;;;;;5045327;28;20510;-77
2021/08/07 09:48:59;;;;;;;4.88;1.00;;;16.60;76.40;;;;;;5047168;28;20053;-77
2021/08/07 09:51:35;;;;;;;4.70;1.20;;;16.70;76.40;;;;;;5023695;28;20050;-77
2021/08/07 09:54:15;;;;;;;6.68;1.20;;;16.70;76.00;;;;;;5041172;28;20036;-76
2021/08/07 09:56:49;;;;;;;5.50;1.20;;;16.80;75.90;;;;;;5019676;28;20058;-77
2021/08/07 09:59:19;;;;;;;2.65;0.80;;;16.80;75.60;;;;;;5030592;28;20050;-78
2021/08/07 10:01:50;;;;;;;10.43;1.20;;;16.70;75.70;;;;;;5014465;28;20048;-77
2021/08/07 10:04:21;;;;;;;6.78;1.35;;;16.50;76.10;;;;;;5030884;28;20407;-76
2021/08/07 10:07:07;;;;;;;6.93;1.13;;;16.30;76.90;;;;;;5036297;28;20108;-76
2021/08/07 10:09:40;;;;;;;5.00;1.08;;;16.20;77.60;;;;;;5043888;28;20041;-74
2021/08/07 10:12:14;;;;;;;7.72;1.30;;;16.10;77.90;;;;;;5044109;28;20090;-76
2021/08/07 10:14:49;;;;;;;4.90;1.20;;;16.00;78.30;;;;;;5033026;28;20053;-77
2021/08/07 10:17:23;;;;;;;4.38;1.33;;;16.00;78.70;;;;;;5049323;28;20041;-77
2021/08/07 10:19:51;;;;;;;4.90;1.10;;;15.90;79.20;;;;;;5049376;28;20041;-78
2021/08/07 10:22:22;;;;;;;5.45;1.33;;;15.90;79.40;;;;;;5047584;28;20052;-76
2021/08/07 10:25:02;;;;;;;6.22;1.33;;;15.80;79.70;;;;;;5048547;28;20057;-75
2021/08/07 10:27:32;;;;;;;3.63;1.37;;;15.80;80.10;;;;;;5050816;28;20272;-76
2021/08/07 10:30:03;;;;;;;7.90;1.40;;;15.70;80.30;;;;;;5049188;28;20298;-74
2021/08/07 10:32:38;;;;;;;6.78;1.10;;;15.70;80.70;;;;;;5049211;28;20060;-74
2021/08/07 10:35:12;;;;;;;8.07;1.38;;;15.70;81.00;;;;;;5052159;28;20049;-74
2021/08/07 10:37:42;;;;;;;7.07;1.40;;;15.60;81.30;;;;;;5053663;28;20045;-74
2021/08/07 10:40:11;;;;;;;9.55;1.50;;;15.60;81.50;;;;;;5053951;28;20045;-74
2021/08/07 10:42:40;;;;;;;7.30;1.30;;;15.60;81.80;;;;;;5053978;28;20060;-75
2021/08/07 10:45:10;;;;;;;6.80;1.45;;;15.60;81.90;;;;;;5037578;28;20303;-76
2021/08/07 10:47:47;;;;;;;4.10;1.35;;;15.50;82.20;;;;;;5053876;28;20060;-74
2021/08/07 10:50:30;;;;;;;7.93;1.67;;;15.50;82.30;;;;;;5037176;28;20053;-75
2021/08/07 10:53:25;;;;;;;6.63;1.67;;;15.40;82.70;;;;;;5053381;28;20067;-75
2021/08/07 10:55:55;;;;;;;5.45;1.45;;;15.30;83.00;;;;;;5054837;28;20057;-74
2021/08/07 10:58:45;;;;;;;5.15;1.40;;;15.30;83.20;;;;;;5054717;28;20517;-74
2021/08/07 11:01:24;;;;;;;7.10;1.70;;;15.40;83.50;;;;;;5053726;28;20056;-73
2021/08/07 11:04:01;;;;;;;7.72;1.80;;;15.30;83.60;;;;;;5054690;28;20041;-73
2021/08/07 11:06:38;;;;;;;7.82;2.00;;;15.40;83.80;;;;;;5054532;28;20060;-73
2021/08/07 11:09:31;;;;;;;6.93;1.60;;;15.50;83.90;;;;;;5053037;28;20344;-73
2021/08/07 11:12:11;;;;;;;8.35;1.50;;;15.70;83.80;;;;;;5054004;28;20049;-73
2021/08/07 11:14:42;;;;;;;7.75;1.63;;;15.70;83.50;;;;;;5054864;28;20048;-73
2021/08/07 11:17:10;;;;;;;9.43;1.48;;;15.80;83.50;;;;;;5054458;28;20052;-73
2021/08/07 11:20:06;;;;;;;6.80;1.70;;;16.00;83.40;;;;;;5054680;28;20041;-74
2021/08/07 11:22:37;;;;;;;6.00;1.50;;;16.00;82.90;;;;;;5052853;28;20064;-74
2021/08/07 11:25:22;;;;;;;2.20;1.00;;;16.10;82.80;;;;;;5053630;28;20060;-73
2021/08/07 11:27:55;;;;;;;11.30;2.10;;;16.10;82.80;;;;;;5054714;28;20068;-74
2021/08/07 11:30:25;;;;;;;4.13;1.20;;;16.20;82.90;;;;;;5053085;28;20414;-74
2021/08/07 11:32:56;;;;;;;10.20;1.55;;;16.30;82.60;;;;;;5053327;28;20048;-74
2021/08/07 11:38:09;;;;;;;6.50;1.45;;;16.30;82.20;;;;;;5053871;28;20049;-74
2021/08/07 11:40:53;;;;;;;5.25;1.50;;;16.30;82.20;;;;;;5054047;28;20322;-74
2021/08/07 11:43:29;;;;;;;7.60;1.70;;;16.20;82.30;;;;;;5052888;28;20075;-74
2021/08/07 11:46:04;;;;;;;4.35;1.38;;;16.20;82.40;;;;;;5053819;28;20083;-74
2021/08/07 11:48:44;;;;;;;5.40;1.10;;;16.20;82.10;;;;;;5053975;28;20053;-74
2021/08/07 11:51:21;;;;;;;5.45;1.40;;;16.20;81.90;;;;;;5053822;28;20053;-73
2021/08/07 11:53:50;;;;;;;5.40;1.50;;;16.30;82.00;;;;;;5053692;28;20041;-73
2021/08/07 11:56:23;;;;;;;5.72;1.52;;;16.40;81.80;;;;;;5052254;28;20056;-73
2021/08/07 11:59:01;;;;;;;6.28;1.25;;;16.60;81.50;;;;;;5053677;28;20049;-74
2021/08/07 12:01:37;;;;;;;5.90;1.40;;;16.70;81.00;;;;;;5053641;28;20395;-74
2021/08/07 12:04:12;;;;;;;5.03;1.45;;;16.80;80.40;;;;;;5053688;28;20045;-74
2021/08/07 12:06:43;;;;;;;7.05;1.60;;;16.90;80.70;;;;;;5053185;28;20056;-74
2021/08/07 12:09:28;;;;;;;4.18;1.33;;;17.10;80.90;;;;;;5052606;28;20049;-74
2021/08/07 12:12:01;;;;;;;4.75;1.23;;;17.30;80.70;;;;;;5053592;28;20056;-74
2021/08/07 12:14:31;;;;;;;4.93;1.40;;;17.60;80.10;;;;;;5053401;28;20045;-74
2021/08/07 12:17:06;;;;;;;2.65;1.40;;;17.60;79.60;;;;;;5053404;28;20048;-74
2021/08/07 12:19:45;;;;;;;4.88;1.10;;;17.60;79.10;;;;;;5052109;28;20049;-74
2021/08/07 12:22:15;;;;;;;6.13;1.40;;;17.60;78.60;;;;;;5052938;28;20053;-74
2021/08/07 12:24:43;;;;;;;4.90;1.40;;;17.50;78.80;;;;;;5053518;28;20045;-75
2021/08/07 12:27:13;;;;;;;4.03;1.05;;;17.30;78.50;;;;;;5053463;28;20045;-76
2021/08/07 12:29:43;;;;;;;5.78;1.55;;;17.30;79.00;;;;;;5053040;28;20045;-75
2021/08/07 12:32:18;;;;;;;8.48;1.67;;;17.20;79.20;;;;;;5053071;28;20056;-75
2021/08/07 12:34:46;;;;;;;6.63;1.73;;;17.10;79.50;;;;;;5052022;28;20395;-74
2021/08/07 12:37:17;;;;;;;6.78;1.80;;;17.20;79.80;;;;;;5053039;28;20307;-74
2021/08/07 12:39:56;;;;;;;5.50;1.30;;;17.20;79.80;;;;;;5053202;28;20063;-74
2021/08/07 12:42:30;;;;;;;4.43;1.67;;;17.20;79.60;;;;;;5053116;28;20045;-74
2021/08/07 12:45:06;;;;;;;5.30;1.42;;;17.10;80.20;;;;;;5052046;28;20053;-74
2021/08/07 12:47:37;;;;;;;4.93;1.42;;;17.10;80.30;;;;;;5051512;28;20060;-75
2021/08/07 12:50:17;;;;;;;3.92;1.40;;;17.10;80.30;;;;;;5052782;28;20060;-74
2021/08/07 12:53:05;;;;;;;4.85;1.60;;;17.00;80.10;;;;;;5052877;28;20426;-80
2021/08/07 12:55:49;;;;;;;3.83;1.35;;;16.80;80.70;;;;;;5035614;28;20045;-75
2021/08/07 12:58:21;;;;;;;5.18;1.55;;;16.70;80.90;;;;;;5050756;28;20422;-74
2021/08/07 13:00:50;;;;;;;6.97;1.48;;;16.60;81.40;;;;;;5052196;28;20052;-75
2021/08/07 13:03:20;;;;;;;5.05;1.58;;;16.50;81.80;;;;;;5050796;28;20218;-75
2021/08/07 13:05:50;;;;;;;5.15;1.48;;;16.50;82.20;;;;;;5052283;28;20056;-75
2021/08/07 13:08:28;;;;;;;2.90;1.30;;;16.60;82.20;;;;;;5051804;28;20040;-74
2021/08/07 13:11:09;;;;;;;5.38;1.55;;;16.60;82.40;;;;;;5051874;28;20350;-74